createdAt,value
2023-04-16T17:45:16.371Z,67.82
2023-04-16T17:47:42.829Z,67.49
2023-04-16T17:50:09.238Z,66.70
2023-04-16T17:52:35.638Z,66.14
2023-04-16T17:55:02.985Z,65.72
2023-04-16T17:57:29.369Z,65.66
2023-04-16T17:59:55.874Z,65.43
2023-04-16T18:02:22.295Z,65.17
2023-04-16T18:04:50.817Z,65.21
2023-04-16T18:07:17.104Z,65.23
2023-04-16T18:09:43.575Z,65.48
2023-04-16T18:12:10.081Z,65.71
2023-04-16T18:14:36.508Z,65.99
2023-04-16T18:17:05.592Z,66.11
2023-04-16T18:19:29.369Z,66.18
2023-04-16T18:21:55.841Z,66.31
2023-04-16T18:24:22.199Z,66.51
2023-04-16T18:26:48.695Z,66.55
2023-04-16T18:29:15.196Z,66.64
2023-04-16T18:31:43.016Z,66.89
2023-04-16T18:34:08.980Z,66.90
2023-04-16T18:36:35.311Z,67.06
2023-04-16T18:39:15.191Z,67.34
2023-04-16T18:41:28.128Z,67.88
2023-04-16T18:43:54.663Z,68.23
2023-04-16T18:46:21.104Z,68.57
2023-04-16T18:48:47.482Z,68.70
2023-04-16T18:51:16.065Z,68.98
2023-04-16T18:53:40.409Z,69.15
2023-04-16T18:56:06.833Z,69.17
2023-04-16T18:58:33.263Z,69.23
2023-04-16T19:00:59.679Z,69.37
2023-04-16T19:03:27.209Z,69.37
2023-04-16T19:05:53.522Z,69.54
2023-04-16T19:08:19.916Z,69.87
2023-04-16T19:10:46.322Z,69.86
2023-04-16T19:13:12.786Z,69.95
2023-04-16T19:15:39.188Z,69.78
2023-04-16T19:18:05.609Z,69.86
2023-04-16T19:20:32.098Z,69.89
2023-04-16T19:22:58.478Z,69.97
2023-04-16T19:25:24.833Z,70.22
2023-04-16T19:27:51.253Z,70.10
2023-04-16T19:30:18.067Z,70.37
2023-04-16T19:32:44.603Z,70.35
2023-04-16T19:35:10.921Z,70.58
2023-04-16T19:37:41.709Z,70.54
2023-04-16T19:40:08.094Z,70.48
2023-04-16T19:42:35.530Z,70.39
2023-04-16T19:45:01.953Z,70.38
2023-04-16T19:47:28.438Z,70.40
2023-04-16T19:49:54.780Z,70.31
2023-04-16T19:52:21.171Z,70.40
2023-04-16T19:54:47.546Z,70.34
2023-04-16T19:57:14.203Z,70.27
2023-04-16T19:59:40.631Z,70.20
2023-04-16T20:02:07.095Z,70.26
2023-04-16T20:04:33.525Z,70.55
2023-04-16T20:06:59.936Z,70.48
2023-04-16T20:09:26.338Z,70.60
2023-04-16T20:11:52.731Z,70.51
2023-04-16T20:14:19.092Z,70.55
2023-04-16T20:16:45.499Z,70.45
2023-04-16T20:19:13.209Z,70.54
2023-04-16T20:21:39.536Z,70.69
2023-04-16T20:24:05.950Z,70.55
2023-04-16T20:26:32.318Z,70.38
2023-04-16T20:28:58.719Z,70.39
2023-04-16T20:31:25.309Z,70.46
2023-04-16T20:33:51.544Z,70.42
2023-04-16T20:36:18.618Z,70.25
2023-04-16T20:38:44.998Z,70.10
2023-04-16T20:41:11.367Z,70.10
2023-04-16T20:43:37.784Z,70.15
2023-04-16T20:46:04.298Z,70.04
2023-04-16T20:48:30.667Z,70.19
2023-04-16T20:50:57.034Z,70.21
2023-04-16T20:53:23.458Z,70.47
2023-04-16T20:55:50.954Z,70.45
2023-04-16T20:58:19.813Z,70.72
2023-04-16T21:00:46.602Z,70.89
2023-04-16T21:03:13.084Z,71.01
2023-04-16T21:05:39.571Z,71.14
2023-04-16T21:08:05.988Z,71.52
2023-04-16T21:10:32.387Z,71.42
2023-04-16T21:12:58.840Z,71.66
2023-04-16T21:15:25.172Z,71.86
2023-04-16T21:17:51.650Z,71.80
2023-04-16T21:20:18.031Z,71.97
2023-04-16T21:22:44.434Z,72.14
2023-04-16T21:25:10.862Z,72.35
2023-04-16T21:27:37.223Z,73.37
2023-04-16T21:30:03.631Z,73.57
2023-04-16T21:32:30.075Z,73.50
2023-04-16T21:34:56.417Z,73.46
2023-04-16T21:37:22.789Z,73.12
2023-04-16T21:39:49.304Z,73.14
2023-04-16T21:42:15.797Z,73.29
2023-04-16T21:44:42.045Z,73.32
2023-04-16T21:47:08.573Z,73.34
2023-04-16T21:49:34.917Z,73.59
2023-04-16T21:52:01.358Z,73.76
2023-04-16T21:54:27.724Z,73.84
2023-04-16T21:56:54.154Z,74.02
2023-04-16T21:59:20.615Z,74.07
2023-04-16T22:01:47.060Z,74.20
2023-04-16T22:04:13.473Z,74.19
2023-04-16T22:06:39.773Z,74.28
2023-04-16T22:09:06.149Z,74.36
2023-04-16T22:11:32.511Z,74.43
2023-04-16T22:13:58.941Z,74.48
2023-04-16T22:16:25.359Z,74.66
2023-04-16T22:18:51.778Z,74.85
2023-04-16T22:21:18.182Z,74.94
2023-04-16T22:23:44.597Z,75.00
2023-04-16T22:26:11.016Z,75.08
2023-04-16T22:28:37.381Z,74.96
2023-04-16T22:31:03.812Z,75.05
2023-04-16T22:33:30.216Z,75.16
2023-04-16T22:35:56.597Z,75.32
2023-04-16T22:38:23.018Z,75.63
2023-04-16T22:40:49.429Z,75.65
2023-04-16T22:43:15.806Z,75.69
2023-04-16T22:45:42.239Z,75.79
2023-04-16T22:48:08.614Z,75.81
2023-04-16T22:50:35.018Z,76.23
2023-04-16T22:53:01.402Z,76.29
2023-04-16T22:55:27.804Z,76.27
2023-04-16T22:57:54.222Z,76.45
2023-04-16T23:00:20.624Z,76.70
2023-04-16T23:02:47.149Z,76.70
2023-04-16T23:05:13.452Z,76.83
2023-04-16T23:07:39.941Z,76.99
2023-04-16T23:10:06.286Z,77.16
2023-04-16T23:12:32.706Z,77.41
2023-04-16T23:14:59.118Z,77.32
2023-04-16T23:17:25.514Z,77.39
2023-04-16T23:19:51.919Z,77.47
2023-04-16T23:22:18.361Z,77.43
2023-04-16T23:24:44.712Z,77.50
2023-04-16T23:27:11.138Z,77.56
2023-04-16T23:29:37.525Z,77.74
2023-04-16T23:32:03.893Z,77.87
2023-04-16T23:34:30.302Z,78.01
2023-04-16T23:36:56.706Z,78.14
2023-04-16T23:39:23.068Z,78.10
2023-04-16T23:41:49.490Z,78.18
2023-04-16T23:44:15.898Z,78.17
2023-04-16T23:46:42.388Z,78.33
2023-04-16T23:49:08.852Z,78.42
2023-04-16T23:51:35.086Z,78.58
2023-04-16T23:54:01.451Z,78.91
2023-04-16T23:56:27.894Z,79.26
2023-04-16T23:58:54.265Z,79.58
